Time;durP1;ratioP1;P1;durP2;ratioP2;P2;SDS_P1;SDS_P2;PMS_P1;PMS_P2;Temp;Humidity;BMP_temperature;BMP_pressure;BME280_temperature;BME280_humidity;BME280_pressure;Samples;Min_cycle;Max_cycle;Signal;HPM_P1;HPM_P2
2022/06/09 00:00:37;;;;;;;1.93;0.70;;;22.50;45.00;;;;;;8333384;28;20319;-42
2022/06/09 00:04:39;;;;;;;0.82;0.82;;;22.50;45.00;;;;;;8332998;28;20367;-42
2022/06/09 00:08:42;;;;;;;0.73;0.73;;;22.50;45.00;;;;;;8333903;28;20406;-42
2022/06/09 00:12:43;;;;;;;1.80;0.60;;;22.50;45.00;;;;;;8332954;28;20053;-42
2022/06/09 00:16:43;;;;;;;0.77;0.77;;;22.40;45.50;;;;;;8333584;28;20040;-42
2022/06/09 00:20:44;;;;;;;0.50;0.50;;;22.40;45.00;;;;;;8333285;28;20038;-42
2022/06/09 00:24:44;;;;;;;0.40;0.40;;;22.40;45.00;;;;;;8332622;28;20490;-41
2022/06/09 00:28:45;;;;;;;0.52;0.52;;;22.40;45.00;;;;;;8333061;28;20037;-41
2022/06/09 00:32:46;;;;;;;0.57;0.55;;;22.40;45.00;;;;;;8332934;28;20136;-42
2022/06/09 00:36:46;;;;;;;0.80;0.63;;;22.40;45.00;;;;;;8332256;28;20036;-41
2022/06/09 00:40:47;;;;;;;1.13;0.70;;;22.40;45.10;;;;;;8332635;28;20060;-42
2022/06/09 00:44:47;;;;;;;1.60;0.70;;;22.40;45.00;;;;;;8332602;28;20033;-43
2022/06/09 00:48:51;;;;;;;1.23;0.70;;;22.40;45.10;;;;;;8332058;28;20470;-42
2022/06/09 00:52:57;;;;;;;1.08;0.80;;;22.40;45.10;;;;;;8332019;28;20375;-42
2022/06/09 00:57:09;;;;;;;1.02;0.52;;;22.40;45.10;;;;;;8332026;28;20046;-42
2022/06/09 01:01:13;;;;;;;1.00;0.50;;;22.40;45.10;;;;;;8330276;28;20045;-43
2022/06/09 01:05:17;;;;;;;0.60;0.60;;;22.40;45.10;;;;;;8332082;28;20051;-43
2022/06/09 01:09:22;;;;;;;0.90;0.70;;;22.40;45.10;;;;;;8331427;28;20029;-43
2022/06/09 01:13:22;;;;;;;0.90;0.73;;;22.30;45.60;;;;;;8331736;28;20049;-43
2022/06/09 01:17:57;;;;;;;1.27;0.90;;;22.30;45.10;;;;;;8331500;28;20079;-42
2022/06/09 01:22:31;;;;;;;0.50;0.50;;;22.30;45.10;;;;;;8314811;28;20064;-43
2022/06/09 01:26:38;;;;;;;1.13;0.90;;;22.30;45.10;;;;;;8331287;28;20128;-43
2022/06/09 01:30:38;;;;;;;0.60;0.60;;;22.30;45.10;;;;;;8330534;28;20033;-43
2022/06/09 01:35:01;;;;;;;0.70;0.70;;;22.30;45.10;;;;;;8331391;28;20493;-42
2022/06/09 01:39:03;;;;;;;0.55;0.55;;;22.30;45.20;;;;;;8331117;28;20044;-42
2022/06/09 01:43:05;;;;;;;0.68;0.47;;;22.30;45.20;;;;;;8330168;28;20029;-43
2022/06/09 01:52:02;;;;;;;0.73;0.50;;;22.30;45.20;;;;;;8325529;28;20133;-42
2022/06/09 01:56:27;;;;;;;0.68;0.65;;;22.30;45.20;;;;;;8297848;28;20044;-42
2022/06/09 02:00:29;;;;;;;0.68;0.60;;;22.30;45.20;;;;;;8297272;28;20030;-42
2022/06/09 02:04:47;;;;;;;0.85;0.50;;;22.20;45.20;;;;;;8297857;28;20487;-42
2022/06/09 02:08:48;;;;;;;0.50;0.50;;;22.30;45.30;;;;;;8297361;28;20107;-42
2022/06/09 02:12:50;;;;;;;0.50;0.50;;;22.20;45.20;;;;;;8296950;28;20046;-42
2022/06/09 02:16:50;;;;;;;0.50;0.50;;;22.20;45.20;;;;;;8297346;28;20065;-42
2022/06/09 02:20:58;;;;;;;0.50;0.50;;;22.20;45.20;;;;;;8297216;28;20120;-42
2022/06/09 02:24:59;;;;;;;0.90;0.50;;;22.20;45.20;;;;;;8296594;28;20116;-42
2022/06/09 02:29:00;;;;;;;0.57;0.43;;;22.20;45.20;;;;;;8296927;28;20042;-42
2022/06/09 02:33:01;;;;;;;0.85;0.50;;;22.20;45.20;;;;;;8296990;28;20100;-42
2022/06/09 02:37:01;;;;;;;1.10;0.60;;;22.20;45.10;;;;;;8296465;28;20030;-42
2022/06/09 02:41:02;;;;;;;1.08;0.50;;;22.20;45.20;;;;;;8297018;28;20495;-42
2022/06/09 02:45:03;;;;;;;1.52;0.60;;;22.20;45.20;;;;;;8297045;28;20092;-42
2022/06/09 02:49:04;;;;;;;;;;;22.20;45.20;;;;;;8296680;28;20508;-42
2022/06/09 02:53:06;;;;;;;0.40;0.40;;;22.10;45.10;;;;;;8296476;28;19929;-42
2022/06/09 02:57:06;;;;;;;0.50;0.40;;;22.10;45.10;;;;;;8296490;28;20041;-42
2022/06/09 03:01:07;;;;;;;0.47;0.47;;;22.20;45.20;;;;;;8296133;28;20064;-42
2022/06/09 03:05:08;;;;;;;0.50;0.50;;;22.10;45.10;;;;;;8297003;28;20038;-42
2022/06/09 03:09:09;;;;;;;0.47;0.47;;;22.10;45.20;;;;;;8296467;28;20038;-42
2022/06/09 03:13:09;;;;;;;2.23;0.67;;;22.10;45.10;;;;;;8295834;28;20058;-42
2022/06/09 03:17:10;;;;;;;0.63;0.53;;;22.10;45.20;;;;;;8296513;28;20066;-42
2022/06/09 03:21:12;;;;;;;0.90;0.60;;;22.10;45.10;;;;;;8296362;28;20038;-42
2022/06/09 03:25:12;;;;;;;1.92;0.70;;;22.10;45.20;;;;;;8296473;28;20028;-42
2022/06/09 03:29:13;;;;;;;0.53;0.53;;;22.10;45.70;;;;;;8296405;28;20066;-42
2022/06/09 03:33:13;;;;;;;0.55;0.50;;;22.10;45.20;;;;;;8295633;28;20053;-42
2022/06/09 03:37:14;;;;;;;1.40;0.60;;;22.10;45.10;;;;;;8297158;28;20461;-42
2022/06/09 03:41:15;;;;;;;0.90;0.70;;;22.10;45.20;;;;;;8301699;28;20100;-42
2022/06/09 03:45:15;;;;;;;2.27;0.57;;;22.00;45.20;;;;;;8301455;28;20375;-42
2022/06/09 03:49:16;;;;;;;2.08;0.70;;;22.10;45.20;;;;;;8301479;28;20030;-42
2022/06/09 03:53:16;;;;;;;1.17;0.50;;;22.10;45.70;;;;;;8301588;28;20053;-42
2022/06/09 03:57:17;;;;;;;0.60;0.60;;;22.10;45.20;;;;;;8300884;28;20045;-42
2022/06/09 04:01:18;;;;;;;0.82;0.63;;;22.10;45.20;;;;;;8301143;28;20124;-42
2022/06/09 04:05:19;;;;;;;0.73;0.65;;;22.10;45.20;;;;;;8301658;28;20049;-42
2022/06/09 04:09:19;;;;;;;0.68;0.60;;;22.00;45.10;;;;;;8300128;28;20053;-42
2022/06/09 04:13:21;;;;;;;0.40;0.40;;;22.10;45.20;;;;;;8301365;28;20042;-42
2022/06/09 04:17:21;;;;;;;0.52;0.50;;;22.00;45.10;;;;;;8301262;28;20273;-42
2022/06/09 04:21:23;;;;;;;0.50;0.50;;;22.00;45.10;;;;;;8300476;28;20041;-42
2022/06/09 04:25:23;;;;;;;0.50;0.47;;;22.10;45.10;;;;;;8301540;28;20040;-42
2022/06/09 04:29:24;;;;;;;0.65;0.40;;;22.10;45.20;;;;;;8300803;28;20042;-42
2022/06/09 04:33:25;;;;;;;0.90;0.70;;;22.20;45.10;;;;;;8300172;28;20046;-42
2022/06/09 04:37:59;;;;;;;0.80;0.80;;;22.20;45.10;;;;;;8300895;28;20062;-42
2022/06/09 04:41:46;;;;;;;0.83;0.70;;;22.20;45.00;;;;;;8300466;28;20038;-42
2022/06/09 04:45:47;;;;;;;0.70;0.70;;;22.20;45.00;;;;;;8300498;28;20113;-42
2022/06/09 04:49:47;;;;;;;1.05;0.70;;;22.30;45.00;;;;;;8300541;28;20037;-42
2022/06/09 04:53:48;;;;;;;1.03;0.60;;;22.30;45.00;;;;;;8300583;28;20080;-42
2022/06/09 04:57:49;;;;;;;0.82;0.70;;;22.30;45.00;;;;;;8298812;28;20034;-42
2022/06/09 05:01:50;;;;;;;0.70;0.60;;;22.30;44.90;;;;;;8299550;28;20030;-42
2022/06/09 05:05:51;;;;;;;1.40;0.80;;;22.30;44.90;;;;;;8299700;28;20045;-42
2022/06/09 05:09:51;;;;;;;1.30;0.70;;;22.40;44.90;;;;;;8298681;28;20038;-43
2022/06/09 05:13:52;;;;;;;1.27;0.70;;;22.40;44.90;;;;;;8298771;28;20077;-42
2022/06/09 05:17:57;;;;;;;0.82;0.73;;;22.40;44.90;;;;;;8298923;28;20084;-42
2022/06/09 05:21:58;;;;;;;0.60;0.60;;;22.30;44.90;;;;;;8298150;28;20030;-42
2022/06/09 05:25:59;;;;;;;0.77;0.77;;;22.30;45.40;;;;;;8299223;28;20036;-43
2022/06/09 05:30:00;;;;;;;1.17;0.85;;;22.30;45.40;;;;;;8298499;28;20438;-41
2022/06/09 05:34:00;;;;;;;0.67;0.60;;;22.30;44.90;;;;;;8297668;28;20049;-42
2022/06/09 05:46:39;;;;;;;1.00;0.68;;;22.30;44.80;;;;;;8298085;28;20387;-42
2022/06/09 05:50:40;;;;;;;2.00;0.60;;;22.30;44.80;;;;;;8298107;28;20034;-43
2022/06/09 05:54:40;;;;;;;1.20;0.80;;;22.30;44.80;;;;;;8297398;28;20440;-43
2022/06/09 05:58:41;;;;;;;1.03;0.80;;;22.30;44.80;;;;;;8297858;28;20503;-43
2022/06/09 06:02:42;;;;;;;1.50;0.90;;;22.30;44.80;;;;;;8296974;28;20137;-43
2022/06/09 06:06:43;;;;;;;0.65;0.57;;;22.30;44.80;;;;;;8296959;28;20491;-42
2022/06/09 06:10:44;;;;;;;0.70;0.70;;;22.30;44.80;;;;;;8297561;28;20121;-43
2022/06/09 06:14:44;;;;;;;1.20;0.70;;;22.30;44.80;;;;;;8297196;28;20453;-42
2022/06/09 06:18:45;;;;;;;1.00;0.70;;;22.20;44.70;;;;;;8296786;28;20038;-42
2022/06/09 06:22:45;;;;;;;0.70;0.70;;;22.20;44.70;;;;;;8297125;28;20038;-42
2022/06/09 06:26:46;;;;;;;1.30;0.73;;;22.20;44.80;;;;;;8297037;28;20034;-42
2022/06/09 06:30:47;;;;;;;1.20;0.80;;;22.20;44.80;;;;;;8296783;28;20042;-42
2022/06/09 06:34:48;;;;;;;;;;;22.20;44.80;;;;;;8297765;28;20534;-42
2022/06/09 06:38:51;;;;;;;0.97;0.57;;;22.20;44.80;;;;;;8296982;28;19953;-43
2022/06/09 06:42:53;;;;;;;1.08;0.70;;;22.20;44.80;;;;;;8296365;28;20372;-43
2022/06/09 06:46:53;;;;;;;;;;;22.20;44.70;;;;;;8297190;28;20034;-43
2022/06/09 06:50:54;;;;;;;0.83;0.70;;;22.20;44.70;;;;;;8296802;28;20027;-41
2022/06/09 06:54:54;;;;;;;0.60;0.60;;;22.20;44.70;;;;;;8296220;28;20482;-41
2022/06/09 06:58:54;;;;;;;1.00;0.80;;;22.20;44.70;;;;;;8296614;28;20376;-42
2022/06/09 07:02:55;;;;;;;1.40;0.80;;;22.20;44.70;;;;;;8296569;28;20050;-42
2022/06/09 07:06:57;;;;;;;1.20;0.90;;;22.20;44.70;;;;;;8297035;28;20046;-42
2022/06/09 07:10:58;;;;;;;2.05;0.70;;;22.20;44.70;;;;;;8297204;28;20269;-42
2022/06/09 07:14:59;;;;;;;1.65;1.10;;;22.20;44.70;;;;;;8302485;28;20045;-42
2022/06/09 07:18:59;;;;;;;2.00;1.00;;;22.20;44.70;;;;;;8301728;28;20395;-42
2022/06/09 07:23:00;;;;;;;1.37;0.60;;;22.20;44.70;;;;;;8302416;28;20403;-41
2022/06/09 07:27:00;;;;;;;1.20;0.90;;;22.20;44.70;;;;;;8302207;28;20072;-43
2022/06/09 07:31:03;;;;;;;1.37;0.83;;;22.20;44.70;;;;;;8301557;28;20455;-43
2022/06/09 07:35:05;;;;;;;2.00;1.00;;;22.30;44.70;;;;;;8302014;28;20293;-41
2022/06/09 07:39:05;;;;;;;1.08;0.80;;;22.20;44.70;;;;;;8301579;28;20160;-41
2022/06/09 07:43:06;;;;;;;0.70;0.70;;;22.30;44.70;;;;;;8301189;28;20041;-41
2022/06/09 07:47:06;;;;;;;2.43;0.80;;;22.30;45.20;;;;;;8301602;28;20084;-42
2022/06/09 07:51:07;;;;;;;1.23;1.13;;;22.30;44.60;;;;;;8301321;28;20034;-42
2022/06/09 07:55:08;;;;;;;1.08;0.90;;;22.30;44.60;;;;;;8300778;28;20042;-42
2022/06/09 07:59:09;;;;;;;0.80;0.80;;;22.30;44.60;;;;;;8301131;28;20100;-42
2022/06/09 08:03:15;;;;;;;1.90;0.90;;;22.30;44.60;;;;;;8301057;28;20120;-42
2022/06/09 08:07:15;;;;;;;0.93;0.80;;;22.40;44.60;;;;;;8301305;28;20053;-41
2022/06/09 08:11:17;;;;;;;1.23;0.80;;;22.30;44.60;;;;;;8300891;28;20133;-41
2022/06/09 08:15:19;;;;;;;1.00;0.63;;;22.40;44.50;;;;;;8300231;28;20133;-41
2022/06/09 08:19:19;;;;;;;1.63;1.02;;;22.40;44.50;;;;;;8300629;28;20061;-42
2022/06/09 08:23:23;;;;;;;1.30;0.85;;;22.40;44.50;;;;;;8299968;28;20030;-42
2022/06/09 08:27:24;;;;;;;1.63;0.90;;;22.40;44.50;;;;;;8300121;28;20446;-42
2022/06/09 08:31:24;;;;;;;0.82;0.80;;;22.40;44.40;;;;;;8300523;28;20045;-42
2022/06/09 08:35:26;;;;;;;1.87;0.97;;;22.40;44.40;;;;;;8300092;28;20037;-41
2022/06/09 08:39:26;;;;;;;1.40;0.88;;;22.50;44.40;;;;;;8299518;28;20026;-42
2022/06/09 08:43:58;;;;;;;1.07;0.80;;;22.40;44.40;;;;;;8300155;28;20483;-41
2022/06/09 08:48:01;;;;;;;1.20;1.00;;;22.50;44.30;;;;;;8299691;28;20037;-41
2022/06/09 08:52:10;;;;;;;1.52;1.10;;;22.50;44.30;;;;;;8299179;28;20049;-42
2022/06/09 08:56:15;;;;;;;1.25;0.90;;;22.50;44.30;;;;;;8299440;28;20403;-42
2022/06/09 09:00:24;;;;;;;1.45;1.02;;;22.50;44.20;;;;;;8298966;28;20040;-41
2022/06/09 09:04:34;;;;;;;2.22;0.88;;;22.50;44.20;;;;;;8299152;28;20050;-42
2022/06/09 09:08:38;;;;;;;1.05;0.88;;;22.50;44.20;;;;;;8298867;28;20038;-41
2022/06/09 09:12:56;;;;;;;0.82;0.77;;;22.50;44.20;;;;;;8298522;28;20034;-41
2022/06/09 09:17:11;;;;;;;1.00;0.90;;;22.50;44.20;;;;;;8298851;28;20042;-41
2022/06/09 09:21:42;;;;;;;2.50;1.00;;;22.60;44.20;;;;;;8325718;28;20389;-41
2022/06/09 09:25:57;;;;;;;2.78;0.90;;;22.60;44.20;;;;;;8331246;28;20406;-41
2022/06/09 09:30:04;;;;;;;1.15;0.68;;;22.60;44.20;;;;;;8330935;28;20370;-41
2022/06/09 09:34:05;;;;;;;0.70;0.70;;;22.60;44.00;;;;;;8329684;28;20114;-41
2022/06/09 09:38:09;;;;;;;1.45;1.02;;;22.60;44.00;;;;;;8330632;28;20375;-40
2022/06/09 09:42:12;;;;;;;1.63;0.70;;;22.60;44.00;;;;;;8331147;28;20052;-41
2022/06/09 09:46:32;;;;;;;2.00;0.82;;;22.60;43.90;;;;;;8330701;28;20040;-41
2022/06/09 09:50:50;;;;;;;2.03;0.88;;;22.60;44.00;;;;;;8330773;28;20540;-42
2022/06/09 09:54:50;;;;;;;1.23;1.00;;;22.60;44.00;;;;;;8330058;28;20057;-42
2022/06/09 09:58:53;;;;;;;1.20;0.80;;;22.60;44.00;;;;;;8330259;28;20041;-41
2022/06/09 10:11:58;;;;;;;1.40;0.70;;;22.60;43.90;;;;;;8328885;28;20060;-43
2022/06/09 10:16:00;;;;;;;1.65;1.00;;;22.60;43.90;;;;;;8329541;28;20038;-42
2022/06/09 10:20:21;;;;;;;1.70;0.90;;;22.60;43.80;;;;;;8330064;28;20037;-42
2022/06/09 10:24:41;;;;;;;1.25;1.15;;;22.70;43.90;;;;;;8329264;28;20093;-42
2022/06/09 10:29:16;;;;;;;2.50;1.27;;;22.70;43.80;;;;;;8329744;28;20049;-42
2022/06/09 10:33:42;;;;;;;0.88;0.80;;;22.70;43.70;;;;;;8329353;28;20045;-42
2022/06/09 10:37:48;;;;;;;2.33;0.85;;;22.70;43.70;;;;;;8330402;28;20045;-42
2022/06/09 10:41:59;;;;;;;1.27;0.80;;;22.80;43.60;;;;;;8329339;28;20121;-43
2022/06/09 10:46:05;;;;;;;0.70;0.70;;;22.80;43.60;;;;;;8330121;28;20057;-42
2022/06/09 10:55:15;;;;;;;2.35;0.80;;;22.80;43.50;;;;;;8335346;28;20095;-42
2022/06/09 10:59:40;;;;;;;1.02;0.82;;;22.80;43.50;;;;;;8335822;28;20075;-42
2022/06/09 11:03:46;;;;;;;0.73;0.70;;;22.80;43.50;;;;;;8335017;28;20045;-42
2022/06/09 11:08:04;;;;;;;1.33;0.90;;;22.80;43.60;;;;;;8335671;28;20455;-42
2022/06/09 11:12:34;;;;;;;2.03;0.80;;;22.80;43.40;;;;;;8335162;28;20102;-42
2022/06/09 11:17:19;;;;;;;1.10;0.70;;;22.80;43.50;;;;;;8335016;28;20094;-42
2022/06/09 11:21:29;;;;;;;2.05;0.90;;;22.80;43.40;;;;;;8334636;28;20555;-41
2022/06/09 11:26:11;;;;;;;1.17;0.63;;;22.80;43.50;;;;;;8334763;28;20033;-41
2022/06/09 11:30:28;;;;;;;1.50;0.55;;;22.90;43.40;;;;;;8273619;28;20112;-43
2022/06/09 11:34:59;;;;;;;1.70;0.88;;;22.90;43.40;;;;;;8302150;28;20049;-42
2022/06/09 11:39:26;;;;;;;1.47;0.80;;;22.90;43.30;;;;;;8301933;28;20111;-42
2022/06/09 11:44:07;;;;;;;0.88;0.77;;;22.90;43.30;;;;;;8301758;28;20132;-42
2022/06/09 11:48:11;;;;;;;;;;;23.00;43.40;;;;;;8302003;28;20510;-41
2022/06/09 11:52:20;;;;;;;0.52;0.52;;;23.00;43.30;;;;;;8328315;28;19921;-41
2022/06/09 11:56:45;;;;;;;0.85;0.73;;;23.00;43.20;;;;;;8334014;28;20041;-41
2022/06/09 12:00:46;;;;;;;0.68;0.60;;;23.00;43.30;;;;;;8332599;28;20490;-41
2022/06/09 12:05:08;;;;;;;;;;;23.00;43.20;;;;;;8334309;28;20139;-41
2022/06/09 12:09:51;;;;;;;1.48;1.20;;;22.90;43.20;;;;;;8333565;28;19909;-42
2022/06/09 12:14:00;;;;;;;2.05;1.25;;;22.90;43.20;;;;;;8333775;28;20041;-42
2022/06/09 12:18:12;;;;;;;3.15;1.40;;;22.90;43.20;;;;;;8333330;28;20041;-41
2022/06/09 12:22:47;;;;;;;1.77;1.27;;;22.90;43.20;;;;;;8333132;28;20126;-41
2022/06/09 12:26:55;;;;;;;2.00;1.10;;;23.00;43.30;;;;;;8315823;28;20061;-42
2022/06/09 12:31:10;;;;;;;2.80;1.17;;;22.90;43.30;;;;;;8332300;28;20042;-42
2022/06/09 12:35:26;;;;;;;1.73;1.58;;;23.00;43.30;;;;;;8333097;28;20498;-41
2022/06/09 12:39:38;;;;;;;2.78;1.40;;;23.00;43.30;;;;;;8332211;28;20126;-42
2022/06/09 12:43:42;;;;;;;2.58;1.45;;;23.00;43.20;;;;;;8332820;28;20038;-42
2022/06/09 12:47:58;;;;;;;2.22;1.52;;;23.00;43.20;;;;;;8332529;28;20041;-42
2022/06/09 12:51:59;;;;;;;1.98;1.38;;;23.10;43.20;;;;;;8331714;28;20038;-41
2022/06/09 12:56:04;;;;;;;1.67;1.55;;;23.10;43.20;;;;;;8332285;28;20033;-41
2022/06/09 13:00:07;;;;;;;1.90;1.25;;;23.10;43.10;;;;;;8332054;28;20088;-42
2022/06/09 13:04:17;;;;;;;2.20;1.20;;;23.10;43.10;;;;;;8331258;28;20042;-41
2022/06/09 13:08:23;;;;;;;1.88;1.40;;;23.10;43.10;;;;;;8330595;28;20124;-42
2022/06/09 13:16:48;;;;;;;2.97;1.42;;;23.10;43.00;;;;;;8331668;28;20048;-42
2022/06/09 13:21:11;;;;;;;2.33;1.42;;;23.10;43.00;;;;;;8331494;28;20391;-42
2022/06/09 13:25:17;;;;;;;2.53;1.50;;;23.10;43.00;;;;;;8330656;28;20038;-42
2022/06/09 13:29:31;;;;;;;2.33;1.52;;;23.10;43.00;;;;;;8331250;28;20040;-42
2022/06/09 13:33:56;;;;;;;2.00;1.20;;;23.10;43.00;;;;;;8330788;28;20136;-42
2022/06/09 13:38:25;;;;;;;1.50;1.30;;;23.20;43.00;;;;;;8330949;28;20579;-42
2022/06/09 13:42:28;;;;;;;2.20;1.23;;;23.20;43.00;;;;;;8330150;28;20045;-42
2022/06/09 13:46:36;;;;;;;2.70;1.70;;;23.20;42.80;;;;;;8330452;28;20124;-42
2022/06/09 13:50:41;;;;;;;2.63;1.20;;;23.20;42.80;;;;;;8330306;28;20045;-42
2022/06/09 13:54:48;;;;;;;2.45;1.40;;;23.20;42.80;;;;;;8329834;28;20438;-42
2022/06/09 13:58:48;;;;;;;2.28;1.08;;;23.20;42.80;;;;;;8330415;28;20094;-42
2022/06/09 14:03:02;;;;;;;1.30;1.20;;;23.20;42.80;;;;;;8330233;28;20034;-42
2022/06/09 14:07:03;;;;;;;2.08;1.10;;;23.20;42.80;;;;;;8330046;28;20273;-42
2022/06/09 14:11:04;;;;;;;1.52;1.02;;;23.20;42.80;;;;;;8329766;28;20021;-42
2022/06/09 14:15:05;;;;;;;1.85;1.20;;;23.20;42.80;;;;;;8329986;28;20229;-42
2022/06/09 14:19:07;;;;;;;3.33;1.20;;;23.10;42.80;;;;;;8329585;28;20410;-42
2022/06/09 14:23:21;;;;;;;2.50;1.50;;;23.10;42.80;;;;;;8328953;28;20103;-43
2022/06/09 14:27:21;;;;;;;1.15;1.05;;;23.10;43.00;;;;;;8329159;28;20025;-43
2022/06/09 14:31:24;;;;;;;1.47;1.10;;;23.10;43.10;;;;;;8329368;28;20124;-43
2022/06/09 14:35:24;;;;;;;2.13;1.42;;;23.00;43.60;;;;;;8329717;28;20057;-43
2022/06/09 14:39:25;;;;;;;3.17;1.33;;;23.00;43.10;;;;;;8329294;28;20121;-44
2022/06/09 14:43:25;;;;;;;2.67;1.17;;;23.00;43.20;;;;;;8329363;28;20030;-43
2022/06/09 14:47:26;;;;;;;2.33;1.10;;;23.00;43.20;;;;;;8329364;28;20402;-43
2022/06/09 14:51:28;;;;;;;2.58;1.33;;;23.00;43.30;;;;;;8328745;28;20080;-43
2022/06/09 14:55:31;;;;;;;1.35;1.17;;;23.00;43.30;;;;;;8329332;28;20029;-43
2022/06/09 14:59:33;;;;;;;2.05;1.38;;;22.90;43.30;;;;;;8329217;28;20037;-43
2022/06/09 15:03:33;;;;;;;2.38;1.20;;;22.90;43.30;;;;;;8328667;28;20133;-43
2022/06/09 15:07:34;;;;;;;3.07;1.30;;;22.90;43.30;;;;;;8329344;28;20124;-43
2022/06/09 15:11:35;;;;;;;2.25;1.30;;;22.90;43.30;;;;;;8328953;28;20046;-43
2022/06/09 15:15:37;;;;;;;1.95;1.17;;;22.90;43.40;;;;;;8328538;28;20034;-42
2022/06/09 15:19:38;;;;;;;2.75;1.15;;;22.90;43.30;;;;;;8329323;28;20037;-42
2022/06/09 15:23:38;;;;;;;3.17;1.30;;;22.90;43.40;;;;;;8328860;28;20088;-42
2022/06/09 15:27:41;;;;;;;3.97;1.00;;;22.90;43.40;;;;;;8328324;28;20041;-42
2022/06/09 15:31:41;;;;;;;1.05;0.90;;;22.90;43.40;;;;;;8329096;28;20087;-42
2022/06/09 15:35:42;;;;;;;1.15;0.82;;;23.00;43.40;;;;;;8334673;28;20034;-42
2022/06/09 15:39:42;;;;;;;1.17;0.97;;;23.00;43.40;;;;;;8334375;28;20463;-41
2022/06/09 15:43:43;;;;;;;2.00;0.77;;;22.90;43.40;;;;;;8334492;28;20276;-42
2022/06/09 15:47:44;;;;;;;3.10;0.90;;;23.00;43.40;;;;;;8334339;28;20276;-41
2022/06/09 15:51:44;;;;;;;1.88;1.00;;;23.00;43.40;;;;;;8333635;28;20095;-42
2022/06/09 15:55:48;;;;;;;1.80;1.07;;;23.00;43.50;;;;;;8334040;28;20410;-42
2022/06/09 15:59:48;;;;;;;1.23;0.90;;;23.00;43.40;;;;;;8334316;28;20497;-42
2022/06/09 16:03:49;;;;;;;1.10;1.00;;;22.90;43.40;;;;;;8333395;28;20105;-42
2022/06/09 16:07:50;;;;;;;3.40;1.23;;;22.90;43.40;;;;;;8315685;28;20269;-42
2022/06/09 16:11:50;;;;;;;2.00;1.30;;;23.00;43.40;;;;;;8300922;28;20058;-43
2022/06/09 16:15:52;;;;;;;2.30;1.00;;;22.90;43.40;;;;;;8300568;28;20483;-43
2022/06/09 16:19:52;;;;;;;2.45;1.20;;;22.90;43.40;;;;;;8300861;28;20089;-43
2022/06/09 16:23:53;;;;;;;1.40;0.70;;;23.00;43.50;;;;;;8300543;28;20034;-43
2022/06/09 16:27:54;;;;;;;1.10;0.80;;;22.90;43.40;;;;;;8300021;28;20030;-43
2022/06/09 16:31:54;;;;;;;1.73;1.02;;;22.90;43.40;;;;;;8300185;28;20049;-43
2022/06/09 16:35:55;;;;;;;1.95;1.02;;;23.00;43.50;;;;;;8300054;28;20034;-43
2022/06/09 16:39:56;;;;;;;1.92;1.50;;;22.90;43.40;;;;;;8299847;28;20495;-43
2022/06/09 16:43:57;;;;;;;1.00;0.95;;;23.00;43.50;;;;;;8299367;28;20038;-43
2022/06/09 16:47:57;;;;;;;2.60;1.15;;;22.90;43.40;;;;;;8299901;28;20063;-40
2022/06/09 16:51:58;;;;;;;1.90;1.10;;;22.90;43.40;;;;;;8299112;28;20121;-43
2022/06/09 16:55:59;;;;;;;1.25;1.10;;;22.90;43.40;;;;;;8299717;28;20041;-43
2022/06/09 16:59:59;;;;;;;0.73;0.70;;;22.90;43.40;;;;;;8299671;28;20034;-43
2022/06/09 17:04:01;;;;;;;1.70;1.20;;;22.90;43.50;;;;;;8298960;28;20289;-41
2022/06/09 17:08:02;;;;;;;1.90;0.77;;;22.90;43.50;;;;;;8299437;28;20058;-41
2022/06/09 17:12:03;;;;;;;1.50;1.00;;;22.90;43.50;;;;;;8298818;28;20045;-41
2022/06/09 17:16:05;;;;;;;2.00;1.10;;;22.90;43.60;;;;;;8298336;28;20030;-41
2022/06/09 17:20:07;;;;;;;2.28;0.80;;;22.90;43.60;;;;;;8299163;28;20034;-41
2022/06/09 17:24:08;;;;;;;1.40;1.23;;;22.80;43.50;;;;;;8298496;28;20038;-41
2022/06/09 17:28:09;;;;;;;3.47;0.90;;;22.90;43.60;;;;;;8298046;28;20120;-42
2022/06/09 17:32:10;;;;;;;1.27;0.90;;;22.80;43.60;;;;;;8298646;28;20064;-42
2022/06/09 17:36:10;;;;;;;1.42;0.90;;;22.90;43.60;;;;;;8298470;28;20030;-42
2022/06/09 17:40:11;;;;;;;1.00;0.90;;;22.80;43.60;;;;;;8298087;28;20084;-42
2022/06/09 17:44:12;;;;;;;1.52;0.90;;;22.80;43.60;;;;;;8298184;28;20156;-42
2022/06/09 17:48:13;;;;;;;0.97;0.80;;;22.80;43.60;;;;;;8297670;28;20046;-42
2022/06/09 17:52:14;;;;;;;1.20;0.90;;;22.80;43.70;;;;;;8297761;28;20686;-43
2022/06/09 17:56:14;;;;;;;1.17;0.82;;;22.80;43.60;;;;;;8297379;28;20069;-43
2022/06/09 18:00:26;;;;;;;1.75;0.95;;;22.80;43.70;;;;;;8297612;28;20037;-43
2022/06/09 18:04:27;;;;;;;1.50;0.95;;;22.80;43.70;;;;;;8298063;28;20045;-42
2022/06/09 18:08:32;;;;;;;1.25;1.00;;;22.70;43.80;;;;;;8297484;28;20038;-42
2022/06/09 18:12:33;;;;;;;1.05;0.80;;;22.80;43.80;;;;;;8297074;28;20399;-42
2022/06/09 18:16:35;;;;;;;1.85;1.05;;;22.80;43.80;;;;;;8297341;28;20041;-42
2022/06/09 18:20:36;;;;;;;0.93;0.93;;;22.80;43.90;;;;;;8297511;28;20100;-42
2022/06/09 18:24:39;;;;;;;1.23;1.10;;;22.80;43.80;;;;;;8296795;28;20509;-42
2022/06/09 18:28:40;;;;;;;2.40;0.80;;;22.80;43.90;;;;;;8296956;28;20049;-42
2022/06/09 18:32:41;;;;;;;2.05;0.80;;;22.70;43.80;;;;;;8296997;28;20495;-42
2022/06/09 18:36:41;;;;;;;1.10;0.80;;;22.70;43.80;;;;;;8296447;28;20030;-42
2022/06/09 18:40:43;;;;;;;2.37;1.23;;;22.70;43.80;;;;;;8297175;28;20402;-42
2022/06/09 18:44:43;;;;;;;1.48;1.00;;;22.80;43.80;;;;;;8296693;28;20280;-42
2022/06/09 18:48:46;;;;;;;1.10;1.00;;;22.80;43.80;;;;;;8296390;28;20034;-42
2022/06/09 18:52:47;;;;;;;2.17;1.10;;;22.70;43.80;;;;;;8296583;28;20050;-42
2022/06/09 18:56:48;;;;;;;1.27;1.00;;;22.80;44.40;;;;;;8296806;28;20419;-42
2022/06/09 19:00:49;;;;;;;1.40;0.95;;;22.80;43.90;;;;;;8296542;28;20418;-42
2022/06/09 19:04:50;;;;;;;1.30;0.98;;;22.70;43.80;;;;;;8297044;28;20042;-42
2022/06/09 19:08:51;;;;;;;1.95;1.27;;;22.70;43.90;;;;;;8325185;28;20129;-42
2022/06/09 19:12:52;;;;;;;1.10;0.90;;;22.70;43.90;;;;;;8335001;28;20498;-42
2022/06/09 19:16:52;;;;;;;2.55;1.05;;;22.70;43.90;;;;;;8335600;28;20033;-42
2022/06/09 19:20:53;;;;;;;1.00;0.90;;;22.70;43.90;;;;;;8335520;28;20025;-42
2022/06/09 19:24:54;;;;;;;1.27;0.70;;;22.70;43.90;;;;;;8334586;28;20268;-42
2022/06/09 19:28:54;;;;;;;1.53;0.83;;;22.70;43.90;;;;;;8335206;28;20036;-43
2022/06/09 19:32:55;;;;;;;1.90;1.27;;;22.60;43.90;;;;;;8334807;28;20049;-42
2022/06/09 19:36:56;;;;;;;0.85;0.85;;;22.70;44.00;;;;;;8334497;28;20585;-42
2022/06/09 19:41:00;;;;;;;2.10;1.20;;;22.60;44.50;;;;;;8334809;28;20030;-43
2022/06/09 19:45:01;;;;;;;1.10;0.90;;;22.60;44.00;;;;;;8334369;28;20044;-43
2022/06/09 19:49:03;;;;;;;2.10;0.98;;;22.60;44.00;;;;;;8333926;28;20037;-43
2022/06/09 19:53:06;;;;;;;0.85;0.73;;;22.60;44.10;;;;;;8333975;28;20045;-43
2022/06/09 19:57:16;;;;;;;1.40;1.00;;;22.60;44.10;;;;;;8334100;28;20034;-43
2022/06/09 20:01:19;;;;;;;0.93;0.93;;;22.50;44.10;;;;;;8334241;28;20033;-43
2022/06/09 20:05:20;;;;;;;1.90;1.33;;;22.50;44.10;;;;;;8334443;28;20041;-42
2022/06/09 20:09:20;;;;;;;;;;;22.50;44.10;;;;;;8333784;28;20034;-42
2022/06/09 20:13:21;;;;;;;2.33;0.83;;;22.50;44.10;;;;;;8333436;28;19921;-41
2022/06/09 20:17:24;;;;;;;1.13;0.73;;;22.50;44.10;;;;;;8333456;28;20133;-41
2022/06/09 20:21:26;;;;;;;0.77;0.77;;;22.50;44.20;;;;;;8332343;28;20507;-42
2022/06/09 20:25:30;;;;;;;1.80;1.33;;;22.50;44.20;;;;;;8333226;28;20040;-42
2022/06/09 20:29:31;;;;;;;1.77;1.10;;;22.50;44.20;;;;;;8333117;28;20038;-42
2022/06/09 20:33:32;;;;;;;2.20;1.02;;;22.50;44.70;;;;;;8333005;28;20187;-42
2022/06/09 20:37:32;;;;;;;1.55;0.80;;;22.50;44.20;;;;;;8332935;28;20029;-42
2022/06/09 20:41:33;;;;;;;1.37;1.00;;;22.50;44.10;;;;;;8332936;28;20079;-42
2022/06/09 20:45:35;;;;;;;1.70;0.70;;;22.40;44.10;;;;;;8332321;28;20103;-42
2022/06/09 20:49:37;;;;;;;0.80;0.80;;;22.50;44.10;;;;;;8332730;28;20083;-42
2022/06/09 20:53:40;;;;;;;1.00;0.82;;;22.40;44.10;;;;;;8332199;28;20041;-42
2022/06/09 20:57:40;;;;;;;0.82;0.82;;;22.40;44.10;;;;;;8331880;28;20056;-42
2022/06/09 21:01:41;;;;;;;1.47;0.80;;;22.40;44.00;;;;;;8332311;28;20596;-42
2022/06/09 21:05:41;;;;;;;1.55;0.60;;;22.40;44.10;;;;;;8332491;28;20048;-42
2022/06/09 21:09:42;;;;;;;1.37;0.80;;;22.40;44.60;;;;;;8330179;28;20108;-42
2022/06/09 21:18:11;;;;;;;1.20;0.90;;;22.40;44.00;;;;;;8331761;28;20525;-43
2022/06/09 21:22:11;;;;;;;1.90;0.82;;;22.40;44.00;;;;;;8331283;28;20041;-43
2022/06/09 21:26:12;;;;;;;1.10;1.00;;;22.40;44.00;;;;;;8331293;28;20034;-43
2022/06/09 21:30:13;;;;;;;1.10;0.82;;;22.40;44.10;;;;;;8330720;28;20030;-43
2022/06/09 21:34:14;;;;;;;1.05;0.82;;;22.40;44.00;;;;;;8330890;28;20072;-42
2022/06/09 21:38:15;;;;;;;0.87;0.87;;;22.40;44.10;;;;;;8330978;28;20025;-43
2022/06/09 21:42:16;;;;;;;1.27;1.10;;;22.30;44.10;;;;;;8330620;28;20264;-42
2022/06/09 21:46:21;;;;;;;1.23;1.00;;;22.30;44.00;;;;;;8330534;28;20029;-43
2022/06/09 21:50:24;;;;;;;2.08;0.98;;;22.30;44.10;;;;;;8330516;28;20037;-42